sensor_id;sensor_type;location;lat;lon;timestamp;pressure;altitude;pressure_sealevel;temperature;humidity
33280;BME280;20403;43.114;12.434;2024-02-16T00:00:47;99736.03;;;4.76;100.00
33280;BME280;20403;43.114;12.434;2024-02-16T00:03:12;99729.72;;;4.79;100.00
33280;BME280;20403;43.114;12.434;2024-02-16T00:05:38;99731.03;;;4.75;100.00
33280;BME280;20403;43.114;12.434;2024-02-16T00:08:04;99731.81;;;4.75;100.00
33280;BME280;20403;43.114;12.434;2024-02-16T00:10:29;99736.50;;;4.80;100.00
33280;BME280;20403;43.114;12.434;2024-02-16T00:12:55;99734.75;;;4.72;100.00
33280;BME280;20403;43.114;12.434;2024-02-16T00:15:22;99741.72;;;4.72;100.00
33280;BME280;20403;43.114;12.434;2024-02-16T00:17:47;99734.13;;;4.70;100.00
33280;BME280;20403;43.114;12.434;2024-02-16T00:20:13;99737.19;;;4.74;100.00
33280;BME280;20403;43.114;12.434;2024-02-16T00:22:39;99731.69;;;4.69;100.00
33280;BME280;20403;43.114;12.434;2024-02-16T00:25:05;99740.72;;;4.73;100.00
33280;BME280;20403;43.114;12.434;2024-02-16T00:27:30;99734.75;;;4.72;100.00
33280;BME280;20403;43.114;12.434;2024-02-16T00:29:56;99728.16;;;4.70;100.00
33280;BME280;20403;43.114;12.434;2024-02-16T00:32:21;99733.19;;;4.63;100.00
33280;BME280;20403;43.114;12.434;2024-02-16T00:34:49;99725.78;;;4.60;100.00
33280;BME280;20403;43.114;12.434;2024-02-16T00:37:17;99731.25;;;4.57;100.00
33280;BME280;20403;43.114;12.434;2024-02-16T00:39:42;99731.59;;;4.54;100.00
33280;BME280;20403;43.114;12.434;2024-02-16T00:42:08;99722.56;;;4.58;100.00
33280;BME280;20403;43.114;12.434;2024-02-16T00:44:34;99724.81;;;4.53;100.00
33280;BME280;20403;43.114;12.434;2024-02-16T00:46:59;99723.06;;;4.45;100.00
33280;BME280;20403;43.114;12.434;2024-02-16T00:49:25;99724.75;;;4.21;100.00
33280;BME280;20403;43.114;12.434;2024-02-16T00:51:50;99723.56;;;4.40;100.00
33280;BME280;20403;43.114;12.434;2024-02-16T00:54:16;99716.13;;;4.46;100.00
33280;BME280;20403;43.114;12.434;2024-02-16T00:56:42;99719.03;;;4.42;100.00
33280;BME280;20403;43.114;12.434;2024-02-16T00:59:07;99722.56;;;4.50;100.00
33280;BME280;20403;43.114;12.434;2024-02-16T01:01:35;99722.75;;;4.40;100.00
33280;BME280;20403;43.114;12.434;2024-02-16T01:04:01;99725.31;;;4.48;100.00
33280;BME280;20403;43.114;12.434;2024-02-16T01:06:27;99723.69;;;4.55;100.00
33280;BME280;20403;43.114;12.434;2024-02-16T01:08:53;99716.91;;;4.54;100.00
33280;BME280;20403;43.114;12.434;2024-02-16T01:11:18;99721.59;;;4.51;100.00
33280;BME280;20403;43.114;12.434;2024-02-16T01:13:45;99723.69;;;4.55;100.00
33280;BME280;20403;43.114;12.434;2024-02-16T01:16:11;99723.75;;;4.31;100.00
33280;BME280;20403;43.114;12.434;2024-02-16T01:18:36;99727.09;;;4.48;100.00
33280;BME280;20403;43.114;12.434;2024-02-16T01:21:03;99717.16;;;4.28;100.00
33280;BME280;20403;43.114;12.434;2024-02-16T01:23:29;99716.47;;;4.34;100.00
33280;BME280;20403;43.114;12.434;2024-02-16T01:25:54;99716.94;;;4.46;100.00
33280;BME280;20403;43.114;12.434;2024-02-16T01:28:20;99707.56;;;4.45;100.00
33280;BME280;20403;43.114;12.434;2024-02-16T01:30:45;99711.88;;;4.61;100.00
33280;BME280;20403;43.114;12.434;2024-02-16T01:33:11;99704.09;;;4.69;100.00
33280;BME280;20403;43.114;12.434;2024-02-16T01:35:36;99698.75;;;4.71;100.00
33280;BME280;20403;43.114;12.434;2024-02-16T01:38:02;99697.31;;;4.68;100.00
33280;BME280;20403;43.114;12.434;2024-02-16T01:40:28;99692.81;;;4.62;100.00
33280;BME280;20403;43.114;12.434;2024-02-16T01:42:54;99689.16;;;4.48;100.00
33280;BME280;20403;43.114;12.434;2024-02-16T01:45:20;99693.50;;;4.48;100.00
33280;BME280;20403;43.114;12.434;2024-02-16T01:47:47;99681.88;;;4.60;100.00
33280;BME280;20403;43.114;12.434;2024-02-16T01:50:16;99681.47;;;4.71;100.00
33280;BME280;20403;43.114;12.434;2024-02-16T01:52:47;99682.31;;;4.63;100.00
33280;BME280;20403;43.114;12.434;2024-02-16T01:55:13;99679.75;;;4.63;100.00
33280;BME280;20403;43.114;12.434;2024-02-16T01:57:48;99686.13;;;4.45;100.00
33280;BME280;20403;43.114;12.434;2024-02-16T02:00:14;99681.19;;;4.66;100.00
33280;BME280;20403;43.114;12.434;2024-02-16T02:02:41;99671.41;;;4.84;100.00
33280;BME280;20403;43.114;12.434;2024-02-16T02:05:09;99668.94;;;4.91;100.00
33280;BME280;20403;43.114;12.434;2024-02-16T02:07:34;99662.91;;;4.99;100.00
33280;BME280;20403;43.114;12.434;2024-02-16T02:10:00;99656.25;;;5.04;100.00
33280;BME280;20403;43.114;12.434;2024-02-16T02:12:25;99658.06;;;5.04;100.00
33280;BME280;20403;43.114;12.434;2024-02-16T02:14:51;99659.78;;;5.12;100.00
33280;BME280;20403;43.114;12.434;2024-02-16T02:17:17;99656.63;;;5.24;100.00
33280;BME280;20403;43.114;12.434;2024-02-16T02:19:44;99656.66;;;5.16;100.00
33280;BME280;20403;43.114;12.434;2024-02-16T02:22:19;99643.59;;;5.18;100.00
33280;BME280;20403;43.114;12.434;2024-02-16T02:24:48;99651.13;;;5.19;100.00
33280;BME280;20403;43.114;12.434;2024-02-16T02:27:15;99643.59;;;5.18;100.00
33280;BME280;20403;43.114;12.434;2024-02-16T02:29:41;99645.53;;;4.93;100.00
33280;BME280;20403;43.114;12.434;2024-02-16T02:32:07;99635.50;;;4.90;100.00
33280;BME280;20403;43.114;12.434;2024-02-16T02:34:33;99636.91;;;5.00;100.00
33280;BME280;20403;43.114;12.434;2024-02-16T02:36:58;99637.06;;;4.99;100.00
33280;BME280;20403;43.114;12.434;2024-02-16T02:39:24;99642.88;;;5.01;100.00
33280;BME280;20403;43.114;12.434;2024-02-16T02:41:49;99636.03;;;5.08;100.00
33280;BME280;20403;43.114;12.434;2024-02-16T02:44:14;99642.47;;;5.12;100.00
33280;BME280;20403;43.114;12.434;2024-02-16T02:46:40;99636.22;;;5.07;100.00
33280;BME280;20403;43.114;12.434;2024-02-16T02:49:06;99642.75;;;4.94;100.00
33280;BME280;20403;43.114;12.434;2024-02-16T02:51:31;99639.72;;;4.91;100.00
33280;BME280;20403;43.114;12.434;2024-02-16T02:53:57;99642.69;;;4.79;100.00
33280;BME280;20403;43.114;12.434;2024-02-16T02:56:22;99637.13;;;4.91;100.00
33280;BME280;20403;43.114;12.434;2024-02-16T02:58:48;99634.66;;;4.97;100.00
33280;BME280;20403;43.114;12.434;2024-02-16T03:01:13;99638.84;;;4.98;100.00
33280;BME280;20403;43.114;12.434;2024-02-16T03:03:39;99645.28;;;5.02;100.00
33280;BME280;20403;43.114;12.434;2024-02-16T03:06:06;99637.06;;;4.99;100.00
33280;BME280;20403;43.114;12.434;2024-02-16T03:08:32;99637.28;;;4.89;100.00
33280;BME280;20403;43.114;12.434;2024-02-16T03:10:58;99635.44;;;4.75;100.00
33280;BME280;20403;43.114;12.434;2024-02-16T03:13:26;99633.34;;;4.78;100.00
33280;BME280;20403;43.114;12.434;2024-02-16T03:15:52;99634.00;;;4.72;100.00
33280;BME280;20403;43.114;12.434;2024-02-16T03:18:18;99629.81;;;4.71;100.00
33280;BME280;20403;43.114;12.434;2024-02-16T03:20:44;99624.47;;;4.73;100.00
33280;BME280;20403;43.114;12.434;2024-02-16T03:23:13;99630.50;;;4.65;100.00
33280;BME280;20403;43.114;12.434;2024-02-16T03:25:38;99634.25;;;4.54;100.00
33280;BME280;20403;43.114;12.434;2024-02-16T03:28:04;99630.72;;;4.55;100.00
33280;BME280;20403;43.114;12.434;2024-02-16T03:30:30;99629.88;;;4.55;100.00
33280;BME280;20403;43.114;12.434;2024-02-16T03:32:56;99635.63;;;4.42;100.00
33280;BME280;20403;43.114;12.434;2024-02-16T03:35:21;99634.31;;;4.46;100.00
33280;BME280;20403;43.114;12.434;2024-02-16T03:37:46;99639.41;;;4.23;100.00
33280;BME280;20403;43.114;12.434;2024-02-16T03:40:12;99639.22;;;4.25;100.00
33280;BME280;20403;43.114;12.434;2024-02-16T03:42:41;99642.78;;;4.24;100.00
33280;BME280;20403;43.114;12.434;2024-02-16T03:45:07;99648.78;;;4.16;100.00
33280;BME280;20403;43.114;12.434;2024-02-16T03:47:32;99646.06;;;4.09;100.00
33280;BME280;20403;43.114;12.434;2024-02-16T03:49:58;99645.38;;;4.15;100.00
33280;BME280;20403;43.114;12.434;2024-02-16T03:52:23;99645.66;;;4.29;100.00
33280;BME280;20403;43.114;12.434;2024-02-16T03:54:49;99648.41;;;4.27;100.00
33280;BME280;20403;43.114;12.434;2024-02-16T03:57:15;99648.78;;;4.16;100.00
33280;BME280;20403;43.114;12.434;2024-02-16T03:59:45;99652.16;;;4.16;100.00
33280;BME280;20403;43.114;12.434;2024-02-16T04:02:11;99650.09;;;4.12;100.00
33280;BME280;20403;43.114;12.434;2024-02-16T04:04:38;99653.16;;;4.07;100.00
33280;BME280;20403;43.114;12.434;2024-02-16T04:07:04;99657.19;;;4.02;100.00
33280;BME280;20403;43.114;12.434;2024-02-16T04:09:32;99649.44;;;4.02;100.00
33280;BME280;20403;43.114;12.434;2024-02-16T04:11:57;99656.44;;;3.93;100.00
33280;BME280;20403;43.114;12.434;2024-02-16T04:14:23;99659.97;;;3.92;100.00
33280;BME280;20403;43.114;12.434;2024-02-16T04:16:48;99656.28;;;3.86;100.00
33280;BME280;20403;43.114;12.434;2024-02-16T04:19:14;99653.53;;;3.79;100.00
33280;BME280;20403;43.114;12.434;2024-02-16T04:21:39;99655.00;;;3.82;100.00
33280;BME280;20403;43.114;12.434;2024-02-16T04:24:05;99661.09;;;3.89;100.00
33280;BME280;20403;43.114;12.434;2024-02-16T04:26:31;99655.63;;;3.84;100.00
33280;BME280;20403;43.114;12.434;2024-02-16T04:28:56;99656.13;;;3.79;100.00
33280;BME280;20403;43.114;12.434;2024-02-16T04:31:22;99658.53;;;3.81;100.00
33280;BME280;20403;43.114;12.434;2024-02-16T04:33:48;99658.53;;;3.81;100.00
33280;BME280;20403;43.114;12.434;2024-02-16T04:36:13;99653.84;;;3.76;100.00
33280;BME280;20403;43.114;12.434;2024-02-16T04:38:40;99660.16;;;3.66;100.00
33280;BME280;20403;43.114;12.434;2024-02-16T04:41:06;99660.31;;;3.72;100.00
33280;BME280;20403;43.114;12.434;2024-02-16T04:43:32;99657.06;;;3.78;100.00
33280;BME280;20403;43.114;12.434;2024-02-16T04:45:57;99659.38;;;3.65;100.00
33280;BME280;20403;43.114;12.434;2024-02-16T04:48:23;99652.13;;;3.52;100.00
33280;BME280;20403;43.114;12.434;2024-02-16T04:50:48;99652.59;;;3.64;100.00
33280;BME280;20403;43.114;12.434;2024-02-16T04:53:14;99658.53;;;3.65;100.00
33280;BME280;20403;43.114;12.434;2024-02-16T04:55:39;99656.63;;;3.67;100.00
33280;BME280;20403;43.114;12.434;2024-02-16T04:58:05;99660.66;;;3.53;100.00
33280;BME280;20403;43.114;12.434;2024-02-16T05:00:37;99655.31;;;3.46;100.00
33280;BME280;20403;43.114;12.434;2024-02-16T05:03:03;99652.13;;;3.61;100.00
33280;BME280;20403;43.114;12.434;2024-02-16T05:05:28;99649.53;;;3.69;100.00
33280;BME280;20403;43.114;12.434;2024-02-16T05:07:53;99647.91;;;3.60;100.00
33280;BME280;20403;43.114;12.434;2024-02-16T05:10:19;99646.00;;;3.70;100.00
33280;BME280;20403;43.114;12.434;2024-02-16T05:12:45;99641.66;;;3.54;100.00
33280;BME280;20403;43.114;12.434;2024-02-16T05:15:11;99639.22;;;3.61;100.00
33280;BME280;20403;43.114;12.434;2024-02-16T05:17:39;99637.09;;;3.81;100.00
33280;BME280;20403;43.114;12.434;2024-02-16T05:20:09;99638.53;;;3.91;100.00
33280;BME280;20403;43.114;12.434;2024-02-16T05:22:35;99638.72;;;3.82;100.00
33280;BME280;20403;43.114;12.434;2024-02-16T05:25:00;99640.47;;;3.89;100.00
33280;BME280;20403;43.114;12.434;2024-02-16T05:27:25;99645.63;;;3.97;100.00
33280;BME280;20403;43.114;12.434;2024-02-16T05:29:51;99639.63;;;4.05;100.00
33280;BME280;20403;43.114;12.434;2024-02-16T05:32:17;99643.66;;;3.99;100.00
33280;BME280;20403;43.114;12.434;2024-02-16T05:34:42;99636.41;;;4.03;100.00
33280;BME280;20403;43.114;12.434;2024-02-16T05:37:08;99641.72;;;4.02;100.00
33280;BME280;20403;43.114;12.434;2024-02-16T05:39:36;99645.72;;;4.04;100.00
33280;BME280;20403;43.114;12.434;2024-02-16T05:42:08;99643.03;;;3.97;100.00
33280;BME280;20403;43.114;12.434;2024-02-16T05:44:34;99641.06;;;3.99;100.00
33280;BME280;20403;43.114;12.434;2024-02-16T05:46:59;99647.34;;;4.05;100.00
33280;BME280;20403;43.114;12.434;2024-02-16T05:49:25;99648.81;;;3.99;100.00
33280;BME280;20403;43.114;12.434;2024-02-16T05:51:50;99646.72;;;4.03;100.00
33280;BME280;20403;43.114;12.434;2024-02-16T05:54:34;99650.88;;;4.12;100.00
33280;BME280;20403;43.114;12.434;2024-02-16T05:56:59;99653.94;;;4.16;100.00
33280;BME280;20403;43.114;12.434;2024-02-16T05:59:25;99653.63;;;4.11;100.00
33280;BME280;20403;43.114;12.434;2024-02-16T06:01:52;99651.88;;;4.03;100.00
33280;BME280;20403;43.114;12.434;2024-02-16T06:04:17;99647.38;;;3.97;100.00
33280;BME280;20403;43.114;12.434;2024-02-16T06:06:43;99652.03;;;4.02;100.00
33280;BME280;20403;43.114;12.434;2024-02-16T06:09:08;99648.66;;;4.01;100.00
33280;BME280;20403;43.114;12.434;2024-02-16T06:11:37;99650.94;;;3.96;100.00
33280;BME280;20403;43.114;12.434;2024-02-16T06:14:03;99653.50;;;3.88;100.00
33280;BME280;20403;43.114;12.434;2024-02-16T06:16:28;99650.28;;;3.94;100.00
33280;BME280;20403;43.114;12.434;2024-02-16T06:18:53;99656.25;;;4.03;100.00
33280;BME280;20403;43.114;12.434;2024-02-16T06:21:19;99658.81;;;3.94;100.00
33280;BME280;20403;43.114;12.434;2024-02-16T06:23:44;99649.94;;;3.97;100.00
33280;BME280;20403;43.114;12.434;2024-02-16T06:26:10;99658.97;;;4.09;100.00
33280;BME280;20403;43.114;12.434;2024-02-16T06:28:35;99666.38;;;4.12;100.00
33280;BME280;20403;43.114;12.434;2024-02-16T06:31:00;99664.22;;;4.24;100.00
33280;BME280;20403;43.114;12.434;2024-02-16T06:33:26;99664.72;;;4.28;100.00
33280;BME280;20403;43.114;12.434;2024-02-16T06:35:51;99670.34;;;4.31;100.00
33280;BME280;20403;43.114;12.434;2024-02-16T06:38:17;99664.03;;;4.34;100.00
33280;BME280;20403;43.114;12.434;2024-02-16T06:40:42;99666.63;;;4.34;100.00
33280;BME280;20403;43.114;12.434;2024-02-16T06:43:07;99662.88;;;4.45;100.00
33280;BME280;20403;43.114;12.434;2024-02-16T06:45:34;99667.91;;;4.38;100.00
33280;BME280;20403;43.114;12.434;2024-02-16T06:47:59;99669.03;;;4.35;100.00
33280;BME280;20403;43.114;12.434;2024-02-16T06:50:25;99674.28;;;4.50;100.00
33280;BME280;20403;43.114;12.434;2024-02-16T06:52:50;99679.81;;;4.47;100.00
33280;BME280;20403;43.114;12.434;2024-02-16T06:55:16;99678.66;;;4.58;100.00
33280;BME280;20403;43.114;12.434;2024-02-16T06:57:41;99683.47;;;4.61;100.00
33280;BME280;20403;43.114;12.434;2024-02-16T07:00:09;99676.50;;;4.61;100.00
33280;BME280;20403;43.114;12.434;2024-02-16T07:02:34;99680.66;;;4.79;100.00
33280;BME280;20403;43.114;12.434;2024-02-16T07:05:00;99680.59;;;4.87;100.00
33280;BME280;20403;43.114;12.434;2024-02-16T07:07:25;99684.44;;;4.91;100.00
33280;BME280;20403;43.114;12.434;2024-02-16T07:09:51;99677.91;;;5.03;100.00
33280;BME280;20403;43.114;12.434;2024-02-16T07:12:16;99677.06;;;5.11;100.00
33280;BME280;20403;43.114;12.434;2024-02-16T07:14:41;99678.25;;;5.23;100.00
33280;BME280;20403;43.114;12.434;2024-02-16T07:17:08;99679.69;;;5.26;100.00
33280;BME280;20403;43.114;12.434;2024-02-16T07:19:35;99683.72;;;5.29;100.00
33280;BME280;20403;43.114;12.434;2024-02-16T07:22:01;99684.31;;;5.39;100.00
33280;BME280;20403;43.114;12.434;2024-02-16T07:24:26;99685.53;;;5.43;100.00
33280;BME280;20403;43.114;12.434;2024-02-16T07:26:52;99690.38;;;5.46;100.00
33280;BME280;20403;43.114;12.434;2024-02-16T07:29:18;99686.03;;;5.46;100.00
33280;BME280;20403;43.114;12.434;2024-02-16T07:31:44;99696.19;;;5.48;100.00
33280;BME280;20403;43.114;12.434;2024-02-16T07:34:09;99693.22;;;5.59;100.00
33280;BME280;20403;43.114;12.434;2024-02-16T07:36:36;99695.81;;;5.74;100.00
33280;BME280;20403;43.114;12.434;2024-02-16T07:39:02;99693.97;;;5.83;100.00
33280;BME280;20403;43.114;12.434;2024-02-16T07:41:30;99689.53;;;5.92;100.00
33280;BME280;20403;43.114;12.434;2024-02-16T07:43:55;99688.13;;;6.04;100.00
33280;BME280;20403;43.114;12.434;2024-02-16T07:46:21;99693.78;;;6.22;100.00
33280;BME280;20403;43.114;12.434;2024-02-16T07:48:46;99691.53;;;6.34;100.00
33280;BME280;20403;43.114;12.434;2024-02-16T07:51:11;99699.13;;;6.50;100.00
33280;BME280;20403;43.114;12.434;2024-02-16T07:53:37;99691.06;;;6.60;100.00
33280;BME280;20403;43.114;12.434;2024-02-16T07:56:06;99694.34;;;6.69;100.00
33280;BME280;20403;43.114;12.434;2024-02-16T07:58:31;99682.81;;;6.86;100.00
33280;BME280;20403;43.114;12.434;2024-02-16T08:00:57;99689.97;;;7.06;100.00
33280;BME280;20403;43.114;12.434;2024-02-16T08:03:22;99695.09;;;7.21;100.00
33280;BME280;20403;43.114;12.434;2024-02-16T08:05:47;99694.19;;;7.28;100.00
33280;BME280;20403;43.114;12.434;2024-02-16T08:08:13;99693.88;;;7.38;100.00
33280;BME280;20403;43.114;12.434;2024-02-16T08:10:38;99695.03;;;7.57;100.00
33280;BME280;20403;43.114;12.434;2024-02-16T08:13:04;99700.53;;;7.69;100.00
33280;BME280;20403;43.114;12.434;2024-02-16T08:15:29;99697.34;;;7.95;100.00
33280;BME280;20403;43.114;12.434;2024-02-16T08:17:56;99694.28;;;8.19;100.00
33280;BME280;20403;43.114;12.434;2024-02-16T08:20:22;99689.88;;;8.13;100.00
33280;BME280;20403;43.114;12.434;2024-02-16T08:22:47;99690.88;;;8.19;100.00
33280;BME280;20403;43.114;12.434;2024-02-16T08:25:12;99683.88;;;8.19;100.00
33280;BME280;20403;43.114;12.434;2024-02-16T08:27:38;99690.09;;;8.18;100.00
33280;BME280;20403;43.114;12.434;2024-02-16T08:30:04;99693.75;;;8.31;100.00
33280;BME280;20403;43.114;12.434;2024-02-16T08:32:31;99692.06;;;8.45;100.00
33280;BME280;20403;43.114;12.434;2024-02-16T08:34:56;99687.31;;;8.61;100.00
33280;BME280;20403;43.114;12.434;2024-02-16T08:37:23;99689.56;;;8.78;100.00
33280;BME280;20403;43.114;12.434;2024-02-16T08:39:49;99689.47;;;9.06;100.00
33280;BME280;20403;43.114;12.434;2024-02-16T08:42:14;99698.72;;;9.42;100.00
33280;BME280;20403;43.114;12.434;2024-02-16T08:44:40;99693.31;;;9.70;100.00
33280;BME280;20403;43.114;12.434;2024-02-16T08:47:07;99696.28;;;10.07;100.00
33280;BME280;20403;43.114;12.434;2024-02-16T08:49:33;99694.44;;;10.41;100.00
33280;BME280;20403;43.114;12.434;2024-02-16T08:51:59;99693.59;;;10.54;100.00
33280;BME280;20403;43.114;12.434;2024-02-16T08:54:25;99693.78;;;10.65;100.00
33280;BME280;20403;43.114;12.434;2024-02-16T08:56:51;99689.75;;;10.63;100.00
33280;BME280;20403;43.114;12.434;2024-02-16T08:59:16;99695.41;;;10.53;100.00
33280;BME280;20403;43.114;12.434;2024-02-16T09:01:43;99687.66;;;10.85;100.00
33280;BME280;20403;43.114;12.434;2024-02-16T09:04:08;99685.84;;;11.17;100.00
33280;BME280;20403;43.114;12.434;2024-02-16T09:06:34;99680.13;;;11.33;100.00
33280;BME280;20403;43.114;12.434;2024-02-16T09:09:04;99681.56;;;11.29;100.00
33280;BME280;20403;43.114;12.434;2024-02-16T09:11:32;99687.41;;;11.25;100.00
33280;BME280;20403;43.114;12.434;2024-02-16T09:13:57;99687.22;;;11.26;100.00
33280;BME280;20403;43.114;12.434;2024-02-16T09:16:23;99684.47;;;11.14;100.00
33280;BME280;20403;43.114;12.434;2024-02-16T09:18:48;99681.16;;;11.32;100.00
33280;BME280;20403;43.114;12.434;2024-02-16T09:21:14;99684.28;;;11.41;100.00
33280;BME280;20403;43.114;12.434;2024-02-16T09:23:40;99682.47;;;11.67;100.00
33280;BME280;20403;43.114;12.434;2024-02-16T09:26:05;99681.63;;;12.16;100.00
33280;BME280;20403;43.114;12.434;2024-02-16T09:28:31;99682.03;;;12.38;100.00
33280;BME280;20403;43.114;12.434;2024-02-16T09:30:57;99681.41;;;12.55;100.00
33280;BME280;20403;43.114;12.434;2024-02-16T09:33:23;99680.31;;;12.63;100.00
33280;BME280;20403;43.114;12.434;2024-02-16T09:35:52;99677.06;;;12.49;100.00
33280;BME280;20403;43.114;12.434;2024-02-16T09:38:17;99679.09;;;12.47;100.00
33280;BME280;20403;43.114;12.434;2024-02-16T09:40:43;99683.72;;;12.63;100.00
33280;BME280;20403;43.114;12.434;2024-02-16T09:43:09;99680.16;;;12.76;100.00
33280;BME280;20403;43.114;12.434;2024-02-16T09:45:34;99680.91;;;12.95;100.00
33280;BME280;20403;43.114;12.434;2024-02-16T09:48:02;99674.72;;;13.19;100.00
33280;BME280;20403;43.114;12.434;2024-02-16T09:50:28;99679.34;;;13.48;100.00
33280;BME280;20403;43.114;12.434;2024-02-16T09:52:54;99681.63;;;13.79;100.00
33280;BME280;20403;43.114;12.434;2024-02-16T09:55:21;99678.44;;;14.01;100.00
33280;BME280;20403;43.114;12.434;2024-02-16T09:57:58;99683.56;;;13.72;99.01
33280;BME280;20403;43.114;12.434;2024-02-16T10:00:23;99676.84;;;13.88;100.00
33280;BME280;20403;43.114;12.434;2024-02-16T10:02:49;99675.78;;;14.24;100.00
33280;BME280;20403;43.114;12.434;2024-02-16T10:05:17;99671.56;;;14.35;91.32
33280;BME280;20403;43.114;12.434;2024-02-16T10:07:43;99682.63;;;14.14;92.18
33280;BME280;20403;43.114;12.434;2024-02-16T10:10:22;99679.78;;;14.15;100.00
33280;BME280;20403;43.114;12.434;2024-02-16T10:12:48;99673.97;;;14.77;95.70
33280;BME280;20403;43.114;12.434;2024-02-16T10:15:23;99661.84;;;15.22;84.29
33280;BME280;20403;43.114;12.434;2024-02-16T10:18:05;99662.72;;;15.61;83.16
33280;BME280;20403;43.114;12.434;2024-02-16T10:20:32;99667.13;;;15.72;77.27
33280;BME280;20403;43.114;12.434;2024-02-16T10:23:14;99670.47;;;15.51;80.83
33280;BME280;20403;43.114;12.434;2024-02-16T10:25:40;99665.19;;;15.34;78.68
33280;BME280;20403;43.114;12.434;2024-02-16T10:28:08;99666.38;;;15.43;81.11
33280;BME280;20403;43.114;12.434;2024-02-16T10:30:39;99660.91;;;15.28;75.70
33280;BME280;20403;43.114;12.434;2024-02-16T10:33:09;99655.16;;;15.14;81.09
33280;BME280;20403;43.114;12.434;2024-02-16T10:35:37;99666.19;;;14.99;79.82
33280;BME280;20403;43.114;12.434;2024-02-16T10:38:04;99662.78;;;14.99;75.61
33280;BME280;20403;43.114;12.434;2024-02-16T10:40:37;99656.59;;;15.05;81.40
33280;BME280;20403;43.114;12.434;2024-02-16T10:43:04;99655.09;;;15.09;82.08
33280;BME280;20403;43.114;12.434;2024-02-16T10:45:34;99653.91;;;15.17;78.63
33280;BME280;20403;43.114;12.434;2024-02-16T10:48:04;99654.28;;;15.08;80.76
33280;BME280;20403;43.114;12.434;2024-02-16T10:50:35;99655.59;;;14.94;82.81
33280;BME280;20403;43.114;12.434;2024-02-16T10:53:17;99652.97;;;14.77;84.84
33280;BME280;20403;43.114;12.434;2024-02-16T10:55:43;99652.56;;;14.85;85.72
33280;BME280;20403;43.114;12.434;2024-02-16T10:58:10;99642.41;;;14.89;84.11
33280;BME280;20403;43.114;12.434;2024-02-16T11:00:36;99642.41;;;15.06;78.39
33280;BME280;20403;43.114;12.434;2024-02-16T11:03:03;99641.16;;;15.42;81.82
33280;BME280;20403;43.114;12.434;2024-02-16T11:05:35;99632.38;;;15.70;77.47
33280;BME280;20403;43.114;12.434;2024-02-16T11:08:02;99633.41;;;15.86;71.99
33280;BME280;20403;43.114;12.434;2024-02-16T11:10:28;99630.22;;;16.28;71.78
33280;BME280;20403;43.114;12.434;2024-02-16T11:12:54;99621.97;;;16.69;66.32
33280;BME280;20403;43.114;12.434;2024-02-16T11:15:31;99620.84;;;16.87;61.79
33280;BME280;20403;43.114;12.434;2024-02-16T11:17:57;99623.97;;;16.84;61.68
33280;BME280;20403;43.114;12.434;2024-02-16T11:20:26;99621.50;;;16.77;59.68
33280;BME280;20403;43.114;12.434;2024-02-16T11:22:53;99621.34;;;16.84;58.94
33280;BME280;20403;43.114;12.434;2024-02-16T11:25:19;99608.47;;;16.87;58.01
33280;BME280;20403;43.114;12.434;2024-02-16T11:27:55;99615.91;;;16.95;56.99
33280;BME280;20403;43.114;12.434;2024-02-16T11:30:21;99604.03;;;16.93;58.84
33280;BME280;20403;43.114;12.434;2024-02-16T11:32:46;99611.16;;;16.92;57.52
33280;BME280;20403;43.114;12.434;2024-02-16T11:35:12;99614.72;;;17.08;58.72
33280;BME280;20403;43.114;12.434;2024-02-16T11:37:37;99608.00;;;17.28;59.28
33280;BME280;20403;43.114;12.434;2024-02-16T11:40:04;99612.59;;;17.42;61.88
33280;BME280;20403;43.114;12.434;2024-02-16T11:42:30;99606.66;;;17.25;64.48
33280;BME280;20403;43.114;12.434;2024-02-16T11:44:55;99592.13;;;17.60;66.95
33280;BME280;20403;43.114;12.434;2024-02-16T11:47:25;99598.09;;;17.93;65.88
33280;BME280;20403;43.114;12.434;2024-02-16T11:50:06;99592.59;;;18.04;64.24
33280;BME280;20403;43.114;12.434;2024-02-16T11:52:40;99595.75;;;17.91;64.85
33280;BME280;20403;43.114;12.434;2024-02-16T11:55:10;99597.53;;;17.85;66.04
33280;BME280;20403;43.114;12.434;2024-02-16T11:57:36;99597.56;;;17.91;66.58
33280;BME280;20403;43.114;12.434;2024-02-16T12:00:03;99591.31;;;18.07;66.11
33280;BME280;20403;43.114;12.434;2024-02-16T12:02:35;99585.00;;;18.13;64.39
33280;BME280;20403;43.114;12.434;2024-02-16T12:05:01;99573.09;;;18.05;62.38
33280;BME280;20403;43.114;12.434;2024-02-16T12:07:27;99576.50;;;17.48;59.84
33280;BME280;20403;43.114;12.434;2024-02-16T12:09:57;99571.75;;;17.45;56.58
33280;BME280;20403;43.114;12.434;2024-02-16T12:12:24;99570.34;;;17.32;48.25
33280;BME280;20403;43.114;12.434;2024-02-16T12:14:49;99568.72;;;17.26;48.19
33280;BME280;20403;43.114;12.434;2024-02-16T12:17:15;99577.13;;;17.23;49.61
33280;BME280;20403;43.114;12.434;2024-02-16T12:19:44;99560.31;;;17.34;50.61
33280;BME280;20403;43.114;12.434;2024-02-16T12:22:20;99558.25;;;17.41;49.15
33280;BME280;20403;43.114;12.434;2024-02-16T12:24:49;99566.72;;;17.49;50.19
33280;BME280;20403;43.114;12.434;2024-02-16T12:27:18;99567.25;;;17.46;51.01
33280;BME280;20403;43.114;12.434;2024-02-16T12:29:43;99562.19;;;17.34;49.83
33280;BME280;20403;43.114;12.434;2024-02-16T12:32:09;99571.53;;;17.14;48.85
33280;BME280;20403;43.114;12.434;2024-02-16T12:34:35;99564.97;;;17.17;48.19
33280;BME280;20403;43.114;12.434;2024-02-16T12:37:04;99559.72;;;17.17;48.85
33280;BME280;20403;43.114;12.434;2024-02-16T12:39:32;99557.28;;;17.10;47.83
33280;BME280;20403;43.114;12.434;2024-02-16T12:41:58;99557.78;;;17.07;46.99
33280;BME280;20403;43.114;12.434;2024-02-16T12:44:23;99556.34;;;16.89;49.10